Time;durP1;ratioP1;P1;durP2;ratioP2;P2;SDS_P1;SDS_P2;PMS_P1;PMS_P2;Temp;Humidity;BMP_temperature;BMP_pressure;BME280_temperature;BME280_humidity;BME280_pressure;Samples;Min_cycle;Max_cycle;Signal;HPM_P1;HPM_P2
2022/08/28 00:07:39;;;;;;;0.20;0.00;;;24.40;99.90;;;;;;26168245;22;20195;-70
2022/08/28 00:17:49;;;;;;;0.20;0.00;;;24.20;99.90;;;;;;26176042;22;20167;-70
2022/08/28 00:27:58;;;;;;;0.20;0.00;;;24.00;99.90;;;;;;26148727;22;20205;-70
2022/08/28 00:38:01;;;;;;;0.20;0.00;;;23.90;99.90;;;;;;26175938;22;20159;-71
2022/08/28 00:48:07;;;;;;;0.20;0.00;;;24.20;99.90;;;;;;26176459;22;20198;-70
2022/08/28 00:58:12;;;;;;;0.20;0.00;;;24.20;99.90;;;;;;26175687;22;20195;-71
2022/08/28 01:08:18;;;;;;;0.20;0.00;;;24.10;99.90;;;;;;26147860;22;20203;-71
2022/08/28 01:18:22;;;;;;;0.20;0.00;;;23.90;99.90;;;;;;26175646;22;20160;-71
2022/08/28 01:28:28;;;;;;;0.20;0.00;;;23.70;99.90;;;;;;26147468;22;20187;-71
2022/08/28 01:38:34;;;;;;;0.20;0.00;;;23.60;99.90;;;;;;26176362;22;20168;-70
2022/08/28 01:48:42;;;;;;;0.20;0.00;;;23.80;99.90;;;;;;26173952;22;20186;-69
2022/08/28 01:58:47;;;;;;;0.20;0.00;;;23.70;99.90;;;;;;26175701;22;20187;-68
2022/08/28 02:08:54;;;;;;;0.20;0.00;;;23.80;99.90;;;;;;26174422;22;20202;-70
2022/08/28 02:18:58;;;;;;;0.20;0.00;;;23.80;99.90;;;;;;26175637;22;20171;-69
2022/08/28 02:29:04;;;;;;;0.20;0.00;;;23.70;99.90;;;;;;26173367;22;20188;-68
2022/08/28 02:39:08;;;;;;;0.20;0.00;;;23.70;99.90;;;;;;26173582;22;20163;-69
2022/08/28 02:49:14;;;;;;;0.20;0.00;;;23.50;99.90;;;;;;26173569;22;20179;-70
2022/08/28 02:59:17;;;;;;;0.20;0.00;;;23.50;99.90;;;;;;26172725;22;20198;-69
2022/08/28 03:09:22;;;;;;;0.20;0.00;;;23.60;99.90;;;;;;26173539;22;20199;-70
2022/08/28 03:19:27;;;;;;;0.20;0.00;;;23.90;99.90;;;;;;26172153;22;20174;-70
2022/08/28 03:29:32;;;;;;;0.20;0.00;;;24.00;99.90;;;;;;26171738;22;20191;-69
2022/08/28 03:39:36;;;;;;;0.20;0.00;;;24.40;99.90;;;;;;26143740;22;20158;-69
2022/08/28 03:49:41;;;;;;;0.20;0.00;;;24.50;99.90;;;;;;26171275;22;20202;-69
2022/08/28 03:59:45;;;;;;;0.20;0.10;;;24.50;99.90;;;;;;26170235;22;20198;-70
2022/08/28 04:09:50;;;;;;;0.20;0.00;;;24.50;99.90;;;;;;26171513;22;20195;-69
2022/08/28 04:19:55;;;;;;;0.20;0.00;;;24.40;99.90;;;;;;26141601;22;20174;-69
2022/08/28 04:30:00;;;;;;;0.20;0.00;;;24.40;99.90;;;;;;26170693;22;20190;-69
2022/08/28 04:40:05;;;;;;;0.20;0.00;;;24.00;99.90;;;;;;26170052;22;20156;-68
2022/08/28 04:50:11;;;;;;;0.20;0.00;;;23.40;99.90;;;;;;26169855;22;20188;-69
2022/08/28 05:00:15;;;;;;;0.20;0.00;;;23.60;99.90;;;;;;26147900;22;20184;-71
2022/08/28 05:10:21;;;;;;;0.20;0.00;;;24.60;99.90;;;;;;26175857;22;20191;-70
2022/08/28 05:20:25;;;;;;;0.20;0.10;;;24.80;99.90;;;;;;26126195;22;20159;-68
2022/08/28 05:30:30;;;;;;;0.20;0.10;;;25.10;99.90;;;;;;26176694;22;20199;-70
2022/08/28 05:40:34;;;;;;;0.20;0.00;;;24.90;99.90;;;;;;26175375;22;20148;-67
2022/08/28 05:50:40;;;;;;;0.20;0.00;;;24.20;99.90;;;;;;26175537;22;20224;-71
2022/08/28 06:00:49;;;;;;;0.20;0.00;;;23.80;99.90;;;;;;26176062;22;20187;-69
2022/08/28 06:10:55;;;;;;;0.20;0.00;;;24.00;99.90;;;;;;26173774;22;20202;-69
2022/08/28 06:21:01;;;;;;;0.20;0.00;;;24.30;99.90;;;;;;26172742;22;20167;-70
2022/08/28 06:31:07;;;;;;;0.20;0.00;;;24.60;99.90;;;;;;26174432;22;21115;-69
2022/08/28 06:41:30;;;;;;;0.20;0.00;;;25.00;99.90;;;;;;26173470;22;20178;-68
2022/08/28 06:51:36;;;;;;;0.20;0.00;;;25.60;99.90;;;;;;26171392;22;20191;-69
2022/08/28 07:01:39;;;;;;;0.20;0.00;;;25.50;99.90;;;;;;26170919;22;20187;-69
2022/08/28 07:11:46;;;;;;;0.20;0.00;;;25.80;99.90;;;;;;26143611;22;20184;-68
2022/08/28 07:21:50;;;;;;;0.20;0.00;;;26.10;99.90;;;;;;26142704;22;20164;-69
2022/08/28 07:31:57;;;;;;;0.20;0.00;;;26.60;99.90;;;;;;26141911;22;20191;-69
2022/08/28 07:42:01;;;;;;;0.20;0.00;;;26.80;99.90;;;;;;26168832;22;20176;-68
2022/08/28 07:52:07;;;;;;;0.20;0.00;;;27.20;99.90;;;;;;26168494;22;20183;-70
2022/08/28 08:02:11;;;;;;;0.20;0.00;;;27.50;99.90;;;;;;26167774;22;20671;-69
2022/08/28 08:12:16;;;;;;;0.20;0.00;;;27.80;99.90;;;;;;26168603;22;20187;-68
2022/08/28 08:22:20;;;;;;;0.20;0.00;;;28.20;99.90;;;;;;26164854;22;20168;-68
2022/08/28 08:32:25;;;;;;;0.20;0.00;;;28.60;99.90;;;;;;26167508;22;20188;-68
2022/08/28 08:42:31;;;;;;;0.20;0.00;;;28.80;99.90;;;;;;26145554;22;20156;-67
2022/08/28 08:52:48;;;;;;;0.20;0.10;;;28.90;99.90;;;;;;26172571;22;20171;-70
2022/08/28 09:02:58;;;;;;;0.20;0.00;;;28.70;99.90;;;;;;26175108;22;20199;-67
2022/08/28 09:13:12;;;;;;;0.20;0.00;;;29.10;99.90;;;;;;26170376;22;20202;-66
2022/08/28 09:23:16;;;;;;;0.20;0.00;;;29.10;99.90;;;;;;26141733;22;20174;-67
2022/08/28 09:33:30;;;;;;;0.20;0.00;;;28.70;99.90;;;;;;26172584;22;20183;-69
2022/08/28 09:43:36;;;;;;;0.20;0.00;;;28.80;99.90;;;;;;26144844;22;20170;-67
2022/08/28 09:53:56;;;;;;;0.20;0.00;;;29.50;99.90;;;;;;26169669;22;20190;-68
2022/08/28 10:04:15;;;;;;;0.20;0.00;;;29.40;99.90;;;;;;26169194;22;20163;-68
2022/08/28 10:14:39;;;;;;;0.20;0.00;;;29.40;99.90;;;;;;26170442;22;20183;-67
2022/08/28 10:25:03;;;;;;;0.20;0.00;;;29.30;99.90;;;;;;26142456;22;20251;-67
2022/08/28 10:35:15;;;;;;;0.20;0.00;;;29.80;99.90;;;;;;26169786;22;20167;-68
2022/08/28 10:45:22;;;;;;;0.20;0.00;;;29.70;99.90;;;;;;26167007;22;20266;-67
2022/08/28 10:55:33;;;;;;;0.20;0.00;;;29.90;99.90;;;;;;26141380;22;20191;-67
2022/08/28 11:05:43;;;;;;;0.20;0.00;;;30.30;99.90;;;;;;26166182;22;20183;-67
2022/08/28 11:15:57;;;;;;;0.20;0.00;;;31.30;99.90;;;;;;26166259;22;20206;-67
2022/08/28 11:26:07;;;;;;;0.20;0.00;;;31.20;99.90;;;;;;26164289;22;20183;-67
2022/08/28 11:36:51;;;;;;;0.20;0.00;;;31.50;99.90;;;;;;26141731;22;20167;-68
2022/08/28 11:47:15;;;;;;;0.20;0.00;;;31.90;99.90;;;;;;26167436;22;20187;-68
2022/08/28 11:57:25;;;;;;;0.20;0.00;;;32.50;99.90;;;;;;26165958;22;20231;-67
2022/08/28 12:07:35;;;;;;;0.20;0.00;;;32.80;99.90;;;;;;26164611;22;20179;-67
2022/08/28 12:18:00;;;;;;;0.20;0.00;;;33.10;99.90;;;;;;26162729;22;20163;-68
2022/08/28 12:28:16;;;;;;;0.20;0.00;;;33.50;99.90;;;;;;26139895;22;20191;-69
2022/08/28 12:38:22;;;;;;;0.20;0.00;;;34.10;99.90;;;;;;26140472;22;20175;-67
2022/08/28 12:48:31;;;;;;;0.20;0.00;;;35.00;99.90;;;;;;26136522;22;20191;-67
2022/08/28 12:58:39;;;;;;;0.20;0.00;;;34.50;99.90;;;;;;26167156;22;20187;-67
2022/08/28 13:08:49;;;;;;;0.20;0.00;;;35.20;99.90;;;;;;26136735;22;20274;-68
2022/08/28 13:19:11;;;;;;;0.20;0.00;;;35.20;99.90;;;;;;26139046;22;20182;-68
2022/08/28 13:29:21;;;;;;;0.20;0.00;;;36.00;99.90;;;;;;26147737;22;20918;-69
2022/08/28 13:39:28;;;;;;;0.20;0.00;;;36.60;99.90;;;;;;26173805;22;20187;-69
2022/08/28 13:49:32;;;;;;;0.20;0.00;;;36.30;99.90;;;;;;26173821;22;20180;-68
2022/08/28 13:59:37;;;;;;;0.20;0.00;;;37.70;99.90;;;;;;26146374;22;20194;-68
2022/08/28 14:09:42;;;;;;;0.20;0.00;;;37.10;99.90;;;;;;26148063;22;20187;-70
2022/08/28 14:19:47;;;;;;;0.20;0.00;;;38.80;99.90;;;;;;26171308;22;20151;-69
2022/08/28 14:29:52;;;;;;;0.20;0.00;;;38.30;99.90;;;;;;26172343;22;20191;-69
2022/08/28 14:39:57;;;;;;;0.20;0.00;;;36.60;99.90;;;;;;26142157;22;20163;-70
2022/08/28 14:50:01;;;;;;;0.20;0.00;;;38.70;99.90;;;;;;26142835;22;20191;-70
2022/08/28 15:00:08;;;;;;;0.20;0.00;;;38.10;99.90;;;;;;26166198;22;20250;-70
2022/08/28 15:10:18;;;;;;;0.20;0.00;;;37.00;99.90;;;;;;26165461;22;20252;-68
2022/08/28 15:20:24;;;;;;;0.20;0.00;;;32.40;99.90;;;;;;26142383;22;20163;-69
2022/08/28 15:30:27;;;;;;;0.20;0.00;;;31.60;99.90;;;;;;26167837;22;20183;-69
2022/08/28 15:51:06;;;;;;;0.20;0.00;;;30.60;99.90;;;;;;26012247;22;20194;-68
2022/08/28 16:01:12;;;;;;;0.20;0.00;;;29.90;99.90;;;;;;26137155;22;20204;-68
2022/08/28 16:11:17;;;;;;;0.20;0.00;;;29.50;99.90;;;;;;26165494;22;20229;-69
2022/08/28 16:21:22;;;;;;;0.20;0.00;;;29.40;99.90;;;;;;26135376;22;20172;-69
2022/08/28 16:31:30;;;;;;;0.20;0.00;;;29.60;99.90;;;;;;26165106;22;20209;-68
2022/08/28 16:41:35;;;;;;;0.20;0.00;;;29.30;99.90;;;;;;26138579;22;20263;-69
2022/08/28 16:51:39;;;;;;;0.20;0.00;;;29.30;99.90;;;;;;26137952;22;20186;-69
2022/08/28 17:01:45;;;;;;;0.20;0.00;;;29.10;99.90;;;;;;26145943;22;20187;-70
2022/08/28 17:11:56;;;;;;;0.20;0.00;;;28.80;99.90;;;;;;26174044;22;20191;-70
2022/08/28 17:32:30;;;;;;;0.20;0.00;;;30.30;99.90;;;;;;26144919;22;20221;-70
2022/08/28 17:42:36;;;;;;;0.20;0.00;;;31.50;99.90;;;;;;26170697;22;20168;-70
2022/08/28 17:52:42;;;;;;;0.20;0.00;;;31.30;99.90;;;;;;26168563;22;20221;-70
2022/08/28 18:02:50;;;;;;;0.20;0.00;;;28.70;99.90;;;;;;26169759;22;20219;-70
2022/08/28 18:12:54;;;;;;;0.20;0.00;;;28.30;99.90;;;;;;26169436;22;20188;-70
2022/08/28 18:22:59;;;;;;;0.20;0.00;;;27.90;99.90;;;;;;26169925;22;20247;-71
2022/08/28 18:33:03;;;;;;;0.20;0.00;;;27.80;99.90;;;;;;26141246;22;20179;-71
2022/08/28 18:43:09;;;;;;;0.20;0.00;;;27.70;99.90;;;;;;26138648;22;20178;-70
2022/08/28 18:53:13;;;;;;;0.20;0.00;;;27.60;99.90;;;;;;26166028;22;20194;-70
2022/08/28 19:03:18;;;;;;;0.20;0.00;;;27.40;99.90;;;;;;26165616;22;20192;-70
2022/08/28 19:13:22;;;;;;;0.20;0.00;;;27.30;99.90;;;;;;26161668;22;20195;-69
2022/08/28 19:23:27;;;;;;;0.20;0.00;;;27.20;99.90;;;;;;26167485;22;20167;-70
2022/08/28 19:33:31;;;;;;;0.20;0.00;;;27.40;99.90;;;;;;26165531;22;20186;-68
2022/08/28 19:43:36;;;;;;;0.20;0.00;;;27.10;99.90;;;;;;26168450;22;20164;-68
2022/08/28 19:53:47;;;;;;;0.20;0.00;;;27.10;99.90;;;;;;26116588;22;20209;-69
2022/08/28 20:03:52;;;;;;;0.20;0.10;;;27.10;99.90;;;;;;26162143;22;20171;-69
2022/08/28 20:13:58;;;;;;;0.20;0.00;;;26.90;99.90;;;;;;26160994;22;20183;-69
2022/08/28 20:24:04;;;;;;;0.20;0.00;;;26.70;99.90;;;;;;26163383;22;20144;-73
2022/08/28 20:34:09;;;;;;;0.20;0.00;;;26.80;99.90;;;;;;26172034;22;20190;-70
2022/08/28 20:44:16;;;;;;;0.20;0.00;;;26.70;99.90;;;;;;26170143;22;20175;-72
2022/08/28 20:54:21;;;;;;;0.20;0.00;;;26.50;99.90;;;;;;26147329;22;20656;-67
2022/08/28 21:04:27;;;;;;;0.20;0.00;;;26.00;99.90;;;;;;26144463;22;20199;-69
2022/08/28 21:14:31;;;;;;;0.20;0.00;;;25.80;99.90;;;;;;26168697;22;20190;-67
2022/08/28 21:24:36;;;;;;;0.20;0.00;;;26.10;99.90;;;;;;26142187;22;20935;-69
2022/08/28 21:34:40;;;;;;;0.20;0.00;;;26.30;99.90;;;;;;26140874;22;20191;-71
2022/08/28 21:44:45;;;;;;;0.20;0.00;;;26.40;99.90;;;;;;26174962;22;20175;-68
2022/08/28 21:54:57;;;;;;;0.20;0.00;;;26.30;99.90;;;;;;26171902;22;20202;-70
2022/08/28 22:05:03;;;;;;;0.20;0.00;;;26.30;99.90;;;;;;26174362;22;20191;-71
2022/08/28 22:15:08;;;;;;;0.20;0.00;;;26.20;99.90;;;;;;26145497;22;20183;-70
2022/08/28 22:25:13;;;;;;;0.20;0.00;;;26.00;99.90;;;;;;26173921;22;20164;-70
2022/08/28 22:35:18;;;;;;;0.20;0.00;;;26.10;99.90;;;;;;26174216;22;20198;-69
2022/08/28 22:45:24;;;;;;;0.20;0.00;;;25.70;99.90;;;;;;26173420;22;20220;-68
2022/08/28 22:55:28;;;;;;;0.20;0.00;;;25.60;99.90;;;;;;26173775;22;20587;-68
2022/08/28 23:05:33;;;;;;;0.20;0.10;;;25.50;99.90;;;;;;26145035;22;20184;-69
2022/08/28 23:15:37;;;;;;;0.20;0.00;;;25.50;99.90;;;;;;26144323;22;21140;-68
2022/08/28 23:25:42;;;;;;;0.20;0.00;;;25.50;99.90;;;;;;26170963;22;20168;-71
2022/08/28 23:35:46;;;;;;;0.20;0.10;;;25.50;99.90;;;;;;26172184;22;20190;-68
2022/08/28 23:45:51;;;;;;;0.20;0.00;;;25.50;99.90;;;;;;26170962;22;20171;-69
2022/08/28 23:55:56;;;;;;;0.20;0.00;;;25.30;99.90;;;;;;26170283;22;20199;-69
